New York, New York
Current Conditions -  °F | °C
As of 7:35 AM on Thursday 29 Jan 2015 (Local Time) from KJRB Reporting Station
Clear Clear  
Wind Chill: 21°   Ceiling: Unl
Heat Index: 21°   Visibility: 10mi
Dew Point: 10°   Wind: 3mph
Humidity: 63%   Direction: 270°W
Pressure: 30.34"   Gusts: NA
Location:  40.71°N, 74.01°W
Report Text: KJRB 291235Z AUTO 27003KT 10SM CLR M06/M12 A3034 RMK AO1
Loading
Personal Weather Stations






























Interactive Weather Map New forecast layout! Learn more

10-Day Weather Forecast

Advertisements
Track Severe Weather on mobile